Time;durP1;ratioP1;P1;durP2;ratioP2;P2;SDS_P1;SDS_P2;PMS_P1;PMS_P2;Temp;Humidity;BMP_temperature;BMP_pressure;BME280_temperature;BME280_humidity;BME280_pressure;Samples;Min_cycle;Max_cycle;Signal;HPM_P1;HPM_P2
2023/11/06 00:00:09;;;;;;;11.70;3.30;;;;;;;13.02;100.00;99424.20;105886;1253;60405;-75
2023/11/06 00:02:36;;;;;;;12.60;3.50;;;;;;;13.02;100.00;99425.08;105870;1255;73939;-77
2023/11/06 00:05:04;;;;;;;10.20;3.40;;;;;;;13.02;100.00;99424.95;105864;1256;63587;-76
2023/11/06 00:07:31;;;;;;;6.80;3.50;;;;;;;13.02;100.00;99423.85;105848;1251;73185;-73
2023/11/06 00:09:58;;;;;;;8.10;2.90;;;;;;;13.03;100.00;99420.24;105891;1256;62086;-75
2023/11/06 00:12:26;;;;;;;7.30;3.40;;;;;;;13.05;100.00;99412.18;105897;1251;60765;-74
2023/11/06 00:14:53;;;;;;;7.50;2.70;;;;;;;13.08;100.00;99406.34;105821;1256;71959;-76
2023/11/06 00:17:20;;;;;;;7.20;3.00;;;;;;;13.11;100.00;99405.92;105810;1259;63834;-73
2023/11/06 00:19:48;;;;;;;7.60;2.80;;;;;;;13.13;100.00;99397.99;105762;1257;72378;-76
2023/11/06 00:22:17;;;;;;;7.40;3.40;;;;;;;13.15;100.00;99394.67;105805;1256;61011;-77
2023/11/06 00:24:44;;;;;;;4.70;2.40;;;;;;;13.16;100.00;99394.38;105878;1251;60546;-76
2023/11/06 00:27:10;;;;;;;6.40;2.40;;;;;;;13.18;100.00;99394.06;105918;1253;72367;-75
2023/11/06 00:29:41;;;;;;;6.60;3.20;;;;;;;13.18;100.00;99390.29;105773;1256;63855;-75
2023/11/06 00:32:07;;;;;;;11.50;2.80;;;;;;;13.19;100.00;99381.45;105893;1251;72500;-74
2023/11/06 00:34:34;;;;;;;7.60;2.70;;;;;;;13.19;100.00;99378.10;105825;1256;61785;-73
2023/11/06 00:37:03;;;;;;;5.00;2.30;;;;;;;13.19;100.00;99374.77;105842;1256;60503;-73
2023/11/06 00:39:30;;;;;;;4.50;1.90;;;;;;;13.20;100.00;99377.84;105907;1259;72412;-74
2023/11/06 00:41:57;;;;;;;7.40;3.80;;;;;;;13.20;100.00;99372.96;105836;1256;63724;-74
2023/11/06 00:44:24;;;;;;;6.10;1.80;;;;;;;13.21;100.00;99367.57;105840;1255;72841;-75
2023/11/06 00:46:51;;;;;;;8.60;2.10;;;;;;;13.22;100.00;99363.98;105795;1257;61853;-74
2023/11/06 00:49:19;;;;;;;9.80;2.20;;;;;;;13.23;100.00;99361.25;105693;1256;60437;-74
2023/11/06 00:51:47;;;;;;;5.80;1.80;;;;;;;13.25;100.00;99363.73;105797;1256;73922;-76
2023/11/06 00:54:14;;;;;;;6.20;1.80;;;;;;;13.26;100.00;99359.09;105836;1257;62518;-74
2023/11/06 00:56:41;;;;;;;8.00;2.40;;;;;;;13.28;100.00;99357.66;105885;1256;71073;-75
2023/11/06 00:59:07;;;;;;;8.90;2.00;;;;;;;13.30;100.00;99348.38;105881;1256;62052;-76
2023/11/06 01:01:35;;;;;;;3.20;1.80;;;;;;;13.32;100.00;99350.16;105760;1256;60447;-76
2023/11/06 01:04:02;;;;;;;3.90;1.90;;;;;;;13.32;100.00;99348.00;105812;1254;73880;-76
2023/11/06 01:06:29;;;;;;;5.60;2.00;;;;;;;13.33;100.00;99343.02;105897;1254;62864;-76
2023/11/06 01:08:56;;;;;;;9.10;2.20;;;;;;;13.33;100.00;99340.27;105831;1256;71317;-75
2023/11/06 01:11:23;;;;;;;5.40;1.60;;;;;;;13.31;100.00;99334.05;105769;1255;62032;-75
2023/11/06 01:13:51;;;;;;;6.30;1.90;;;;;;;13.31;100.00;99335.48;105715;1251;60402;-75
2023/11/06 01:16:18;;;;;;;3.40;1.50;;;;;;;13.31;100.00;99338.52;105850;1257;73948;-76
2023/11/06 01:18:45;;;;;;;6.40;1.60;;;;;;;13.31;100.00;99344.67;105871;1256;63592;-77
2023/11/06 01:21:12;;;;;;;5.20;1.50;;;;;;;13.32;100.00;99346.99;105893;1257;72515;-76
2023/11/06 01:23:39;;;;;;;4.60;1.40;;;;;;;13.33;100.00;99339.67;105831;1256;61887;-75
2023/11/06 01:26:06;;;;;;;6.20;2.30;;;;;;;13.35;100.00;99331.61;105845;1251;60543;-75
2023/11/06 01:28:33;;;;;;;3.40;1.50;;;;;;;13.37;100.00;99325.42;105873;1256;73853;-76
2023/11/06 01:31:00;;;;;;;5.20;1.50;;;;;;;13.39;100.00;99320.52;105760;1256;63876;-75
2023/11/06 01:33:28;;;;;;;5.80;1.20;;;;;;;13.41;100.00;99323.89;105905;1256;71493;-77
2023/11/06 01:35:54;;;;;;;6.20;1.70;;;;;;;13.41;100.00;99326.50;105888;1265;61700;-71
2023/11/06 01:38:21;;;;;;;4.60;1.50;;;;;;;13.41;100.00;99325.78;105808;1251;60563;-74
2023/11/06 01:40:48;;;;;;;4.40;1.50;;;;;;;13.41;100.00;99321.21;105808;1255;73874;-74
2023/11/06 01:43:22;;;;;;;4.80;1.50;;;;;;;13.42;100.00;99318.48;105880;1259;62497;-75
2023/11/06 01:45:49;;;;;;;6.70;2.20;;;;;;;13.42;100.00;99317.04;105793;1251;71144;-77
2023/11/06 01:48:16;;;;;;;3.80;1.40;;;;;;;13.43;100.00;99314.16;105698;1257;62010;-75
2023/11/06 01:50:44;;;;;;;3.70;1.40;;;;;;;13.43;100.00;99318.34;105702;1256;60483;-75
2023/11/06 01:53:11;;;;;;;5.10;1.60;;;;;;;13.43;100.00;99313.11;105758;1256;72911;-75
2023/11/06 01:55:38;;;;;;;8.30;1.40;;;;;;;13.43;100.00;99303.95;105905;1256;63776;-73
2023/11/06 01:58:05;;;;;;;5.40;1.80;;;;;;;13.44;100.00;99303.89;105794;1251;72684;-76
2023/11/06 02:00:32;;;;;;;5.40;1.50;;;;;;;13.44;100.00;99304.19;105778;1258;61751;-76
2023/11/06 02:02:59;;;;;;;6.40;1.70;;;;;;;13.47;100.00;99303.40;105737;1251;61560;-75
2023/11/06 02:05:26;;;;;;;3.60;1.40;;;;;;;13.50;100.00;99301.27;105863;1256;73686;-72
2023/11/06 02:07:53;;;;;;;7.00;1.60;;;;;;;13.53;100.00;99300.13;105765;1251;62714;-76
2023/11/06 02:10:21;;;;;;;4.70;1.30;;;;;;;13.55;100.00;99304.86;105830;1256;72698;-76
2023/11/06 02:12:48;;;;;;;4.70;1.60;;;;;;;13.56;100.00;99298.54;105816;1255;62027;-76
2023/11/06 02:15:15;;;;;;;6.10;1.50;;;;;;;13.58;100.00;99299.77;105845;1251;60450;-76
2023/11/06 02:17:43;;;;;;;5.00;1.80;;;;;;;13.59;100.00;99303.02;105664;1257;73905;-75
2023/11/06 02:20:11;;;;;;;5.30;2.30;;;;;;;13.60;100.00;99308.06;105848;1251;63558;-78
2023/11/06 02:25:57;;;;;;;7.00;1.80;;;;;;;13.62;100.00;99303.95;102617;1290;602904;-74
2023/11/06 02:28:24;;;;;;;6.20;1.70;;;;;;;13.61;100.00;99300.02;104962;1269;61963;-74
2023/11/06 02:30:52;;;;;;;5.60;1.60;;;;;;;13.63;100.00;99296.39;104867;1264;60318;-76
2023/11/06 02:33:19;;;;;;;7.60;1.60;;;;;;;13.63;100.00;99301.77;104944;1268;72254;-75
2023/11/06 02:35:46;;;;;;;16.50;3.60;;;;;;;13.64;100.00;99298.27;105059;1264;62302;-74
2023/11/06 02:38:13;;;;;;;7.80;1.40;;;;;;;13.65;100.00;99297.73;105393;1254;253055;-75
2023/11/06 02:40:41;;;;;;;6.30;1.40;;;;;;;13.67;100.00;99300.88;105491;1259;62034;-77
2023/11/06 02:43:08;;;;;;;7.40;1.80;;;;;;;13.69;100.00;99301.23;105443;1255;60144;-74
2023/11/06 02:45:35;;;;;;;5.70;1.30;;;;;;;13.71;100.00;99294.40;105580;1261;72184;-74
2023/11/06 02:48:02;;;;;;;7.40;1.50;;;;;;;13.73;100.00;99296.14;105622;1260;63913;-73
2023/11/06 02:50:30;;;;;;;5.00;1.70;;;;;;;13.75;100.00;99289.79;105662;1260;72866;-75
2023/11/06 02:52:58;;;;;;;5.50;1.50;;;;;;;13.77;100.00;99291.99;105430;1257;59713;-73
2023/11/06 02:55:25;;;;;;;10.80;2.70;;;;;;;13.80;100.00;99292.63;105702;1260;60358;-75
2023/11/06 02:57:52;;;;;;;6.80;1.50;;;;;;;13.83;100.00;99299.59;105522;1260;71480;-74
2023/11/06 03:00:20;;;;;;;8.80;1.50;;;;;;;13.85;100.00;99299.20;105633;1260;63897;-76
2023/11/06 03:02:47;;;;;;;8.80;2.80;;;;;;;13.86;100.00;99297.09;105506;1259;72412;-76
2023/11/06 03:05:16;;;;;;;12.60;4.60;;;;;;;13.88;100.00;99291.50;105556;1260;62013;-76
2023/11/06 03:07:43;;;;;;;10.80;3.40;;;;;;;13.89;100.00;99290.33;105557;1260;60327;-73
2023/11/06 03:10:11;;;;;;;14.10;2.40;;;;;;;13.91;100.00;99291.10;105548;1259;71555;-73
2023/11/06 03:12:38;;;;;;;10.50;2.30;;;;;;;13.91;100.00;99290.21;105526;1260;63837;-74
2023/11/06 03:15:06;;;;;;;13.90;2.40;;;;;;;13.90;100.00;99289.02;105527;1260;72648;-73
2023/11/06 03:17:33;;;;;;;6.00;2.00;;;;;;;13.90;100.00;99292.58;105664;1260;60584;-74
2023/11/06 03:20:01;;;;;;;8.10;2.00;;;;;;;13.88;100.00;99297.59;105983;1253;60333;-74
2023/11/06 03:22:28;;;;;;;7.00;1.80;;;;;;;13.88;100.00;99289.71;105960;1253;73133;-74
2023/11/06 03:24:54;;;;;;;6.70;2.20;;;;;;;13.87;100.00;99285.81;105987;1252;63524;-76
2023/11/06 03:27:21;;;;;;;5.70;2.10;;;;;;;13.86;100.00;99283.14;106061;1253;70222;-75
2023/11/06 03:29:48;;;;;;;8.60;1.60;;;;;;;13.85;100.00;99286.73;105972;1251;60349;-75
2023/11/06 03:32:15;;;;;;;7.50;2.60;;;;;;;13.84;100.00;99280.52;106057;1256;60338;-75
2023/11/06 03:34:45;;;;;;;8.10;3.00;;;;;;;13.83;100.00;99279.89;105997;1253;72857;-75
2023/11/06 03:37:12;;;;;;;8.70;4.00;;;;;;;13.82;100.00;99274.17;106003;1257;63651;-74
2023/11/06 03:39:42;;;;;;;9.70;2.30;;;;;;;13.81;100.00;99278.34;105894;1253;72481;-76
2023/11/06 03:42:09;;;;;;;8.80;2.30;;;;;;;13.81;100.00;99275.18;105897;1254;60328;-76
2023/11/06 03:44:36;;;;;;;13.30;2.20;;;;;;;13.79;100.00;99277.13;105894;1256;59528;-76
2023/11/06 03:47:06;;;;;;;7.00;2.00;;;;;;;13.77;100.00;99277.60;105952;1254;73069;-74
2023/11/06 03:49:33;;;;;;;6.20;1.80;;;;;;;13.76;100.00;99281.39;106001;1253;63645;-75
2023/11/06 03:52:00;;;;;;;4.60;2.20;;;;;;;13.75;100.00;99277.69;105998;1251;72573;-74
2023/11/06 03:54:27;;;;;;;10.80;5.10;;;;;;;13.74;100.00;99281.76;106025;1254;61021;-76
2023/11/06 03:56:55;;;;;;;9.90;3.00;;;;;;;13.74;100.00;99281.48;105988;1251;59973;-74
2023/11/06 03:59:22;;;;;;;9.70;3.60;;;;;;;13.74;100.00;99285.15;106019;1254;73052;-73
2023/11/06 04:01:48;;;;;;;6.90;3.10;;;;;;;13.73;100.00;99282.75;105938;1254;59749;-76
2023/11/06 04:04:15;;;;;;;11.30;2.70;;;;;;;13.73;100.00;99277.11;105988;1256;72733;-75
2023/11/06 04:06:42;;;;;;;9.90;2.10;;;;;;;13.73;100.00;99278.69;105899;1254;62053;-73
2023/11/06 04:09:10;;;;;;;5.90;1.80;;;;;;;13.73;100.00;99278.56;105899;1251;59576;-75
2023/11/06 04:11:37;;;;;;;11.80;2.50;;;;;;;13.73;100.00;99279.23;105937;1254;73158;-73
2023/11/06 04:14:04;;;;;;;9.60;2.00;;;;;;;13.74;100.00;99284.27;106048;1260;62346;-74
2023/11/06 04:16:33;;;;;;;6.80;2.00;;;;;;;13.74;100.00;99283.72;105877;1257;72476;-74
2023/11/06 04:18:59;;;;;;;7.70;2.00;;;;;;;13.74;100.00;99285.46;105886;1251;60482;-74
2023/11/06 04:21:26;;;;;;;7.40;2.30;;;;;;;13.75;100.00;99285.54;105947;1253;60164;-73
2023/11/06 04:23:53;;;;;;;10.40;2.10;;;;;;;13.76;100.00;99288.65;106033;1253;72908;-73
2023/11/06 04:26:20;;;;;;;10.80;2.50;;;;;;;13.77;100.00;99288.55;105926;1251;62581;-75
2023/11/06 04:28:47;;;;;;;11.50;3.00;;;;;;;13.78;100.00;99293.55;105987;1254;59561;-75
2023/11/06 04:31:14;;;;;;;13.50;5.80;;;;;;;13.80;100.00;99294.92;105835;1252;60565;-76
2023/11/06 04:33:41;;;;;;;12.40;6.10;;;;;;;13.82;100.00;99298.44;105886;1254;59631;-78
2023/11/06 04:36:09;;;;;;;11.90;3.50;;;;;;;13.83;100.00;99299.41;105946;1256;72874;-77
2023/11/06 04:38:36;;;;;;;13.90;2.90;;;;;;;13.84;100.00;99300.83;105978;1254;63890;-77
2023/11/06 04:41:03;;;;;;;9.70;2.90;;;;;;;13.85;100.00;99296.20;105957;1254;72334;-74
2023/11/06 04:43:30;;;;;;;9.70;3.00;;;;;;;13.86;100.00;99292.72;105969;1257;60759;-76
2023/11/06 04:45:59;;;;;;;14.60;3.50;;;;;;;13.87;100.00;99293.86;106026;1263;59637;-76
2023/11/06 04:48:28;;;;;;;8.00;2.80;;;;;;;13.88;100.00;99289.73;105953;1251;73003;-75
2023/11/06 04:50:55;;;;;;;8.80;3.80;;;;;;;13.89;100.00;99283.64;105972;1257;62404;-76
2023/11/06 04:53:22;;;;;;;19.80;4.30;;;;;;;13.91;100.00;99282.67;106027;1255;72336;-75
2023/11/06 04:55:49;;;;;;;14.40;5.10;;;;;;;13.91;100.00;99283.32;106014;1254;61888;-75
2023/11/06 04:58:19;;;;;;;15.20;5.00;;;;;;;13.91;100.00;99290.34;106047;1256;59539;-78
2023/11/06 05:00:48;;;;;;;13.60;3.70;;;;;;;13.92;100.00;99305.23;106071;1254;71858;-76
2023/11/06 05:03:15;;;;;;;12.30;4.30;;;;;;;13.92;100.00;99316.27;105957;1257;63215;-74
2023/11/06 05:05:43;;;;;;;11.10;4.50;;;;;;;13.92;100.00;99314.52;106037;1254;72443;-76
2023/11/06 05:08:10;;;;;;;9.50;3.60;;;;;;;13.91;100.00;99317.38;106018;1263;61824;-76
2023/11/06 05:10:38;;;;;;;7.90;3.60;;;;;;;13.91;100.00;99322.11;106043;1250;60130;-76
2023/11/06 05:13:05;;;;;;;11.90;3.40;;;;;;;13.91;100.00;99323.22;105942;1253;72032;-76
2023/11/06 05:15:31;;;;;;;6.80;2.40;;;;;;;13.90;100.00;99333.52;105958;1250;62377;-76
2023/11/06 05:17:59;;;;;;;8.40;3.10;;;;;;;13.88;100.00;99332.45;105958;1254;72340;-75
2023/11/06 05:20:26;;;;;;;9.10;3.30;;;;;;;13.87;100.00;99331.17;106056;1253;62995;-76
2023/11/06 05:22:53;;;;;;;12.30;3.70;;;;;;;13.86;100.00;99327.02;105908;1251;60108;-75
2023/11/06 05:25:20;;;;;;;12.10;4.00;;;;;;;13.86;100.00;99322.24;105899;1251;71592;-77
2023/11/06 05:27:48;;;;;;;10.00;4.00;;;;;;;13.86;100.00;99324.22;106011;1251;63615;-78
2023/11/06 05:30:21;;;;;;;15.10;4.80;;;;;;;13.86;100.00;99343.00;105936;1251;71335;-78
2023/11/06 05:32:48;;;;;;;14.60;5.30;;;;;;;13.85;100.00;99352.17;105873;1251;59826;-78
2023/11/06 05:35:15;;;;;;;14.30;4.70;;;;;;;13.86;100.00;99359.01;106027;1253;60122;-76
2023/11/06 05:37:42;;;;;;;15.00;5.50;;;;;;;13.86;100.00;99365.30;106004;1252;73059;-77
2023/11/06 05:40:12;;;;;;;13.50;3.70;;;;;;;13.86;100.00;99372.67;106072;1251;64017;-77
2023/11/06 05:42:45;;;;;;;11.20;3.50;;;;;;;13.87;100.00;99375.60;106136;1257;72632;-76
2023/11/06 05:45:12;;;;;;;11.70;4.20;;;;;;;13.87;100.00;99377.30;106118;1254;60546;-76
2023/11/06 05:47:39;;;;;;;11.70;4.70;;;;;;;13.88;100.00;99382.48;105994;1254;60002;-77
2023/11/06 05:50:06;;;;;;;10.90;4.10;;;;;;;13.89;100.00;99384.86;106009;1251;72883;-76
2023/11/06 05:52:33;;;;;;;16.00;4.00;;;;;;;13.90;100.00;99383.38;105973;1254;65307;-76
2023/11/06 05:55:00;;;;;;;9.30;3.70;;;;;;;13.91;100.00;99389.27;106015;1253;72723;-76
2023/11/06 05:57:28;;;;;;;12.60;4.30;;;;;;;13.92;100.00;99388.45;106008;1254;61932;-76
2023/11/06 05:59:55;;;;;;;7.20;3.60;;;;;;;13.93;100.00;99387.46;106035;1251;60180;-77
2023/11/06 06:02:22;;;;;;;11.10;4.50;;;;;;;13.95;100.00;99387.55;105978;1253;73033;-76
2023/11/06 06:04:49;;;;;;;13.00;4.00;;;;;;;13.96;100.00;99389.35;106009;1254;63707;-74
2023/11/06 06:07:16;;;;;;;13.00;4.50;;;;;;;13.97;100.00;99394.67;105984;1251;71139;-74
2023/11/06 06:09:43;;;;;;;9.90;4.40;;;;;;;14.00;100.00;99397.08;106006;1254;60799;-75
2023/11/06 06:12:11;;;;;;;8.50;2.70;;;;;;;14.01;100.00;99394.96;106014;1251;60222;-75
2023/11/06 06:14:38;;;;;;;16.00;5.40;;;;;;;14.03;100.00;99393.52;106008;1251;72992;-76
2023/11/06 06:17:05;;;;;;;9.80;3.40;;;;;;;14.06;100.00;99399.83;106004;1257;62452;-76
2023/11/06 06:19:33;;;;;;;9.10;3.30;;;;;;;14.08;100.00;99401.38;105977;1254;72436;-75
2023/11/06 06:22:00;;;;;;;16.00;3.40;;;;;;;14.12;100.00;99400.73;106045;1251;60552;-76
2023/11/06 06:24:28;;;;;;;6.30;2.70;;;;;;;14.13;100.00;99398.83;106061;1251;60421;-76
2023/11/06 06:26:55;;;;;;;9.50;3.10;;;;;;;14.15;100.00;99402.02;106047;1254;73069;-75
2023/11/06 06:29:21;;;;;;;10.70;2.80;;;;;;;14.15;100.00;99405.09;105977;1250;62205;-77
2023/11/06 06:31:53;;;;;;;7.70;3.20;;;;;;;14.17;100.00;99408.14;105944;1251;72650;-75
2023/11/06 06:34:20;;;;;;;15.30;5.50;;;;;;;14.17;100.00;99409.63;105965;1251;62007;-74
2023/11/06 06:36:47;;;;;;;7.80;2.80;;;;;;;14.19;100.00;99412.33;105939;1251;60500;-77
2023/11/06 06:39:14;;;;;;;8.40;3.20;;;;;;;14.20;100.00;99413.48;106060;1251;73897;-76
2023/11/06 06:41:41;;;;;;;7.70;2.40;;;;;;;14.21;100.00;99415.11;105952;1259;62374;-75
2023/11/06 06:44:08;;;;;;;9.50;2.40;;;;;;;14.22;100.00;99420.31;105978;1251;71129;-76
2023/11/06 06:46:36;;;;;;;12.60;3.40;;;;;;;14.23;100.00;99416.00;106074;1253;62044;-77
2023/11/06 06:49:03;;;;;;;11.00;3.50;;;;;;;14.24;100.00;99418.65;105999;1253;60418;-74
2023/11/06 06:51:29;;;;;;;10.30;2.70;;;;;;;14.26;100.00;99427.84;106000;1254;73810;-76
2023/11/06 06:53:57;;;;;;;9.00;3.10;;;;;;;14.29;100.00;99423.70;105836;1255;63707;-77
2023/11/06 06:56:23;;;;;;;10.80;2.70;;;;;;;14.31;100.00;99428.20;105905;1254;72670;-78
2023/11/06 06:58:50;;;;;;;6.90;2.40;;;;;;;14.35;100.00;99431.41;105964;1254;60872;-78
2023/11/06 07:01:17;;;;;;;9.70;3.10;;;;;;;14.38;100.00;99432.48;105904;1254;60555;-76
2023/11/06 07:03:44;;;;;;;12.90;2.40;;;;;;;14.42;100.00;99428.44;105997;1251;73901;-76
2023/11/06 07:06:14;;;;;;;8.20;2.80;;;;;;;14.45;100.00;99433.23;106054;1256;63902;-78
2023/11/06 07:08:41;;;;;;;7.10;2.60;;;;;;;14.49;100.00;99444.73;106090;1251;73168;-78
2023/11/06 07:11:08;;;;;;;9.40;2.90;;;;;;;14.54;100.00;99448.73;105916;1251;61962;-77
2023/11/06 07:13:35;;;;;;;10.00;3.10;;;;;;;14.57;100.00;99447.58;105948;1254;60428;-76
2023/11/06 07:16:04;;;;;;;8.80;2.50;;;;;;;14.60;100.00;99448.20;105965;1251;72317;-76
2023/11/06 07:18:32;;;;;;;9.70;3.00;;;;;;;14.62;100.00;99449.41;106048;1253;64724;-78
2023/11/06 07:20:58;;;;;;;11.60;3.30;;;;;;;14.64;100.00;99451.68;106001;1251;72313;-77
2023/11/06 07:23:25;;;;;;;5.50;2.50;;;;;;;14.65;100.00;99450.84;105930;1251;61967;-79
2023/11/06 07:25:52;;;;;;;9.60;2.60;;;;;;;14.67;100.00;99453.86;105990;1254;60402;-75
2023/11/06 07:28:20;;;;;;;12.80;3.90;;;;;;;14.68;100.00;99452.79;105995;1254;73888;-78
2023/11/06 07:30:46;;;;;;;6.30;2.80;;;;;;;14.73;100.00;99456.59;105953;1253;63864;-77
2023/11/06 07:33:13;;;;;;;8.40;2.80;;;;;;;14.76;100.00;99455.24;105928;1251;72563;-78
2023/11/06 07:35:40;;;;;;;5.80;2.10;;;;;;;14.81;100.00;99462.92;105944;1253;61931;-77
2023/11/06 07:38:07;;;;;;;6.50;2.40;;;;;;;14.86;100.00;99470.00;105959;1251;60536;-78
2023/11/06 07:40:34;;;;;;;8.80;2.90;;;;;;;14.89;100.00;99472.98;105924;1250;72457;-75
2023/11/06 07:43:02;;;;;;;7.60;3.20;;;;;;;14.94;100.00;99479.63;105897;1253;64360;-79
2023/11/06 07:45:29;;;;;;;9.10;4.30;;;;;;;14.98;100.00;99482.35;106011;1251;72875;-78
2023/11/06 07:48:02;;;;;;;5.60;2.50;;;;;;;15.01;100.00;99479.78;106025;1253;62028;-78
2023/11/06 07:50:29;;;;;;;4.50;2.50;;;;;;;15.05;100.00;99482.09;106056;1251;60533;-78
2023/11/06 07:52:56;;;;;;;7.30;3.70;;;;;;;15.08;100.00;99487.06;105932;1253;73332;-78
2023/11/06 07:55:23;;;;;;;5.00;2.70;;;;;;;15.13;100.00;99486.52;105897;1254;64639;-76
2023/11/06 07:57:50;;;;;;;7.90;2.10;;;;;;;15.19;100.00;99496.54;105913;1250;72786;-77
2023/11/06 08:00:17;;;;;;;11.10;3.70;;;;;;;15.24;100.00;99502.56;105900;1251;60447;-77
2023/11/06 08:02:44;;;;;;;7.80;2.90;;;;;;;15.30;100.00;99504.08;105913;1250;60438;-76
2023/11/06 08:05:11;;;;;;;5.50;2.70;;;;;;;15.35;100.00;99500.27;105889;1251;72947;-78
2023/11/06 08:07:41;;;;;;;8.90;2.80;;;;;;;15.42;100.00;99499.95;105913;1251;62231;-76
2023/11/06 08:10:09;;;;;;;5.80;2.60;;;;;;;15.49;100.00;99505.08;105870;1251;72639;-74
2023/11/06 08:12:36;;;;;;;5.80;2.80;;;;;;;15.53;100.00;99504.82;105975;1254;61995;-77
2023/11/06 08:15:03;;;;;;;4.20;2.70;;;;;;;15.58;100.00;99506.84;105975;1249;60408;-75
2023/11/06 08:17:31;;;;;;;11.20;3.80;;;;;;;15.64;100.00;99511.52;105981;1253;74009;-77
2023/11/06 08:19:58;;;;;;;8.10;2.90;;;;;;;15.71;100.00;99509.19;105891;1254;63761;-75
2023/11/06 08:22:25;;;;;;;10.90;3.00;;;;;;;15.80;100.00;99511.02;105951;1251;71564;-76
2023/11/06 08:24:51;;;;;;;5.20;2.60;;;;;;;15.86;100.00;99514.82;105907;1253;61953;-76
2023/11/06 08:27:19;;;;;;;8.80;2.50;;;;;;;15.90;100.00;99511.73;105895;1251;60444;-74
2023/11/06 08:29:47;;;;;;;6.70;3.10;;;;;;;15.95;100.00;99511.61;105887;1251;73862;-75
2023/11/06 08:32:14;;;;;;;6.00;2.70;;;;;;;15.98;100.00;99518.01;105931;1253;63866;-74
2023/11/06 08:34:42;;;;;;;7.10;2.30;;;;;;;16.00;100.00;99524.00;105922;1254;72420;-75
2023/11/06 08:37:11;;;;;;;10.30;2.80;;;;;;;16.04;100.00;99525.05;105971;1254;60500;-73
2023/11/06 08:39:45;;;;;;;2.90;2.20;;;;;;;16.06;100.00;99523.05;105982;1254;60357;-76
2023/11/06 08:42:12;;;;;;;6.70;2.50;;;;;;;16.07;100.00;99523.06;105994;1253;73830;-78
2023/11/06 08:44:43;;;;;;;4.90;2.20;;;;;;;16.11;100.00;99526.58;106003;1251;63926;-77
2023/11/06 08:47:10;;;;;;;6.30;2.10;;;;;;;16.13;100.00;99527.92;105882;1254;71577;-76
2023/11/06 08:49:37;;;;;;;6.00;1.60;;;;;;;16.17;100.00;99533.19;105922;1251;60533;-76
2023/11/06 08:52:04;;;;;;;4.90;1.90;;;;;;;16.24;100.00;99536.38;105883;1251;61537;-76
2023/11/06 08:54:31;;;;;;;5.20;2.70;;;;;;;16.33;100.00;99541.70;106060;1251;72866;-76
2023/11/06 08:56:58;;;;;;;5.10;1.80;;;;;;;16.38;100.00;99547.11;105989;1253;63249;-75
2023/11/06 08:59:25;;;;;;;3.30;2.00;;;;;;;16.44;100.00;99550.41;105949;1253;70640;-77
2023/11/06 09:01:52;;;;;;;5.60;2.20;;;;;;;16.50;100.00;99554.36;105886;1254;62246;-75
2023/11/06 09:04:19;;;;;;;5.60;2.20;;;;;;;16.57;100.00;99558.74;105926;1251;60508;-77
2023/11/06 09:06:46;;;;;;;6.70;1.90;;;;;;;16.59;100.00;99555.54;105884;1251;74752;-75
2023/11/06 09:09:13;;;;;;;5.50;2.80;;;;;;;16.58;100.00;99558.67;105922;1251;63791;-74
2023/11/06 09:11:41;;;;;;;5.60;2.50;;;;;;;16.52;100.00;99562.29;105903;1251;72599;-74
2023/11/06 09:14:09;;;;;;;5.70;3.20;;;;;;;16.46;100.00;99561.52;105967;1251;60565;-73
2023/11/06 09:16:38;;;;;;;10.90;3.30;;;;;;;16.39;100.00;99561.36;105972;1254;60428;-74
2023/11/06 09:19:05;;;;;;;5.10;3.00;;;;;;;16.34;100.00;99559.52;105944;1251;73837;-75
2023/11/06 09:21:33;;;;;;;6.30;3.40;;;;;;;16.29;100.00;99558.79;105977;1251;61936;-76
2023/11/06 09:24:01;;;;;;;5.50;3.10;;;;;;;16.27;100.00;99557.20;105959;1254;71811;-74
2023/11/06 09:26:28;;;;;;;5.10;3.40;;;;;;;16.53;100.00;99553.95;105983;1253;62139;-75
2023/11/06 09:28:55;;;;;;;6.70;2.90;;;;;;;17.14;100.00;99561.60;105924;1251;60472;-76
2023/11/06 09:31:21;;;;;;;8.10;2.50;;;;;;;18.03;100.00;99560.82;105921;1251;73731;-74
2023/11/06 09:33:51;;;;;;;4.50;2.30;;;;;;;18.98;100.00;99570.05;105950;1254;63001;-75
2023/11/06 09:36:21;;;;;;;4.40;1.60;;;;;;;19.90;100.00;99566.62;105925;1252;72666;-75
2023/11/06 09:38:50;;;;;;;3.50;1.50;;;;;;;20.73;100.00;99572.64;105906;1250;61737;-75
2023/11/06 09:41:17;;;;;;;10.30;1.90;;;;;;;21.47;100.00;99579.38;106011;1254;60515;-74
2023/11/06 09:43:45;;;;;;;3.80;2.10;;;;;;;21.94;100.00;99575.45;105927;1251;73935;-74
2023/11/06 09:46:15;;;;;;;5.70;2.50;;;;;;;22.44;100.00;99578.23;106003;1253;63893;-76
2023/11/06 09:48:42;;;;;;;7.90;1.90;;;;;;;22.89;100.00;99577.55;105976;1250;72550;-75
2023/11/06 09:51:13;;;;;;;2.50;1.80;;;;;;;23.22;100.00;99577.48;106008;1254;60536;-75
2023/11/06 09:53:46;;;;;;;2.30;1.60;;;;;;;23.60;100.00;99580.94;105966;1251;60418;-76
2023/11/06 09:56:15;;;;;;;3.50;2.20;;;;;;;23.78;100.00;99579.52;105885;1251;72348;-75
2023/11/06 09:58:43;;;;;;;4.30;2.10;;;;;;;23.66;95.93;99582.50;105912;1254;62277;-75
2023/11/06 10:01:12;;;;;;;5.90;2.30;;;;;;;23.49;98.71;99586.34;106012;1250;72356;-76
2023/11/06 10:03:40;;;;;;;4.10;2.20;;;;;;;23.49;100.00;99589.92;106035;1250;60540;-75
2023/11/06 10:06:08;;;;;;;5.80;2.40;;;;;;;23.69;100.00;99594.26;105919;1251;61218;-75
2023/11/06 10:08:36;;;;;;;6.50;4.20;;;;;;;23.89;98.28;99598.48;105883;1250;73950;-75
2023/11/06 10:11:07;;;;;;;11.70;8.60;;;;;;;24.04;90.12;99603.73;105938;1254;63962;-75
2023/11/06 10:13:58;;;;;;;14.20;8.10;;;;;;;24.04;82.96;99598.29;105915;1253;73853;-75
2023/11/06 10:16:26;;;;;;;14.70;9.10;;;;;;;23.99;84.07;99597.96;105931;1251;60453;-76
2023/11/06 10:19:10;;;;;;;13.60;8.90;;;;;;;24.05;83.24;99594.70;105868;1254;60527;-78
2023/11/06 10:21:37;;;;;;;18.10;9.70;;;;;;;24.18;80.32;99594.38;105985;1251;72173;-76
2023/11/06 10:24:05;;;;;;;13.90;8.30;;;;;;;24.24;77.51;99598.25;105954;1254;65108;-75
2023/11/06 10:26:32;;;;;;;14.00;8.30;;;;;;;24.27;76.42;99598.70;105992;1251;72529;-72
2023/11/06 10:29:09;;;;;;;12.40;7.60;;;;;;;24.30;76.16;99605.88;105998;1254;60433;-72
2023/11/06 10:31:40;;;;;;;14.60;7.10;;;;;;;24.37;74.21;99608.27;105908;1254;60404;-73
2023/11/06 10:34:25;;;;;;;14.90;7.70;;;;;;;24.33;73.39;99607.45;105963;1250;71841;-73
2023/11/06 10:37:13;;;;;;;13.70;7.90;;;;;;;24.38;74.11;99620.02;105954;1251;62059;-74
2023/11/06 10:39:41;;;;;;;12.40;6.10;;;;;;;24.51;70.02;99621.15;105942;1251;72035;-75
2023/11/06 10:42:10;;;;;;;11.40;5.80;;;;;;;24.57;68.93;99623.30;106032;1254;60807;-76
2023/11/06 10:44:37;;;;;;;8.20;6.40;;;;;;;24.56;66.85;99627.71;105998;1253;60581;-77
2023/11/06 10:47:08;;;;;;;9.00;5.20;;;;;;;24.50;66.86;99627.84;105851;1251;73778;-74
2023/11/06 10:49:50;;;;;;;9.40;4.10;;;;;;;24.42;66.81;99630.13;106032;1253;63482;-76
2023/11/06 10:52:17;;;;;;;5.50;3.90;;;;;;;24.34;66.65;99628.10;106023;1251;73006;-75
2023/11/06 10:54:44;;;;;;;4.70;3.30;;;;;;;24.21;64.69;99636.14;105952;1256;60449;-74
2023/11/06 10:57:14;;;;;;;5.30;2.60;;;;;;;23.92;64.05;99641.63;105837;1251;60487;-77
2023/11/06 10:59:41;;;;;;;4.70;3.20;;;;;;;23.64;62.67;99645.92;105813;1256;74108;-75
2023/11/06 11:02:09;;;;;;;4.90;2.20;;;;;;;23.30;63.12;99650.58;105852;1251;65196;-77
2023/11/06 11:04:36;;;;;;;6.40;3.70;;;;;;;22.93;66.21;99651.17;105821;1251;72071;-74
2023/11/06 11:07:04;;;;;;;6.00;3.60;;;;;;;22.60;69.45;99654.44;106077;1254;61126;-74
2023/11/06 11:09:31;;;;;;;5.00;3.10;;;;;;;22.28;71.18;99659.30;105945;1256;60370;-78
2023/11/06 11:12:01;;;;;;;2.80;1.90;;;;;;;21.96;68.46;99664.36;105856;1253;73638;-75
2023/11/06 11:14:28;;;;;;;3.40;2.10;;;;;;;21.60;72.12;99662.15;105870;1251;63214;-75
2023/11/06 11:16:57;;;;;;;3.60;1.70;;;;;;;21.35;73.63;99660.02;105892;1251;73923;-73
2023/11/06 11:19:27;;;;;;;2.40;0.90;;;;;;;21.14;76.91;99667.89;105876;1251;60533;-74
2023/11/06 11:22:12;;;;;;;1.60;0.90;;;;;;;20.88;77.53;99657.77;106033;1250;60529;-76